Time;durP1;ratioP1;P1;durP2;ratioP2;P2;SDS_P1;SDS_P2;PMS_P1;PMS_P2;Temp;Humidity;BMP_temperature;BMP_pressure;BME280_temperature;BME280_humidity;BME280_pressure;Samples;Min_cycle;Max_cycle;Signal;HPM_P1;HPM_P2
2023/04/10 00:01:49;;;;;;;32.53;22.47;;;2.40;99.90;;;;;;5093926;28;20694;-74
2023/04/10 00:04:16;;;;;;;34.80;23.30;;;2.40;99.90;;;;;;5093778;28;20202;-73
2023/04/10 00:06:44;;;;;;;36.20;24.30;;;2.30;99.90;;;;;;5093717;28;20258;-74
2023/04/10 00:09:11;;;;;;;33.67;21.87;;;2.30;99.90;;;;;;5093707;28;20254;-74
2023/04/10 00:11:37;;;;;;;32.60;22.23;;;2.30;99.90;;;;;;5093716;28;20612;-74
2023/04/10 00:14:04;;;;;;;32.30;21.87;;;2.20;99.90;;;;;;5093733;28;20236;-73
2023/04/10 00:16:30;;;;;;;30.83;21.20;;;2.10;99.90;;;;;;5093697;28;20196;-73
2023/04/10 00:18:57;;;;;;;33.10;22.97;;;2.10;99.90;;;;;;5093521;28;20540;-73
2023/04/10 00:21:23;;;;;;;35.37;23.33;;;2.00;99.90;;;;;;5093766;28;20628;-73
2023/04/10 00:23:51;;;;;;;33.80;23.27;;;2.00;99.90;;;;;;5093729;28;20224;-73
2023/04/10 00:26:19;;;;;;;34.07;22.63;;;2.00;99.90;;;;;;5093394;28;20263;-73
2023/04/10 00:28:46;;;;;;;36.50;23.23;;;2.00;99.90;;;;;;5093158;28;20560;-73
2023/04/10 00:31:12;;;;;;;36.07;22.27;;;2.00;99.90;;;;;;5093478;28;20334;-74
2023/04/10 00:33:39;;;;;;;34.57;23.17;;;2.00;99.90;;;;;;5093036;28;20243;-74
2023/04/10 00:36:06;;;;;;;32.53;21.60;;;1.90;99.90;;;;;;5093693;28;20235;-74
2023/04/10 00:38:33;;;;;;;34.20;21.83;;;1.80;99.90;;;;;;5093418;28;20196;-74
2023/04/10 00:41:01;;;;;;;31.63;20.83;;;1.80;99.90;;;;;;5093470;28;20653;-74
2023/04/10 00:43:27;;;;;;;32.07;21.00;;;1.90;99.90;;;;;;5093053;28;20917;-74
2023/04/10 00:45:54;;;;;;;31.13;21.20;;;1.70;99.90;;;;;;5092930;28;20262;-74
2023/04/10 00:48:21;;;;;;;29.47;20.77;;;1.70;99.90;;;;;;5093351;28;20288;-74
2023/04/10 00:50:48;;;;;;;29.37;20.70;;;1.70;99.90;;;;;;5093180;28;20228;-74
2023/04/10 00:53:14;;;;;;;33.40;21.97;;;1.70;99.90;;;;;;5093143;28;20204;-74
2023/04/10 00:55:41;;;;;;;32.27;21.60;;;1.70;99.90;;;;;;5093110;28;20231;-72
2023/04/10 00:58:13;;;;;;;31.23;21.83;;;1.70;99.90;;;;;;5093043;28;20196;-72
2023/04/10 01:00:39;;;;;;;33.20;22.10;;;1.70;99.90;;;;;;5092995;28;20202;-72
2023/04/10 01:03:07;;;;;;;31.77;21.63;;;1.70;99.90;;;;;;5093290;28;20236;-74
2023/04/10 01:05:39;;;;;;;30.70;21.43;;;1.70;99.90;;;;;;5092980;28;20262;-73
2023/04/10 01:08:14;;;;;;;34.53;21.87;;;1.70;99.90;;;;;;5093181;28;20210;-75
2023/04/10 01:10:46;;;;;;;34.83;22.23;;;1.70;99.90;;;;;;5092842;28;20204;-72
2023/04/10 01:13:22;;;;;;;36.93;22.27;;;1.60;99.90;;;;;;5092764;28;20201;-74
2023/04/10 01:15:56;;;;;;;33.80;22.43;;;1.60;99.90;;;;;;5092914;28;20196;-73
2023/04/10 01:18:31;;;;;;;31.07;21.13;;;1.60;99.90;;;;;;5092850;28;20196;-72
2023/04/10 01:21:00;;;;;;;33.07;21.93;;;1.50;99.90;;;;;;5092789;28;20241;-73
2023/04/10 01:23:50;;;;;;;32.40;22.43;;;1.30;99.90;;;;;;5092592;28;20219;-73
2023/04/10 01:26:23;;;;;;;33.70;22.03;;;1.20;99.90;;;;;;5092749;28;20267;-73
2023/04/10 01:28:59;;;;;;;34.90;22.90;;;1.40;99.90;;;;;;5092959;28;20243;-74
2023/04/10 01:31:34;;;;;;;31.67;21.90;;;1.40;99.90;;;;;;5092946;28;20196;-74
2023/04/10 01:34:07;;;;;;;33.60;22.77;;;1.40;99.90;;;;;;5092587;28;20255;-74
2023/04/10 01:36:37;;;;;;;33.07;21.83;;;1.40;99.90;;;;;;5092706;28;20234;-74
2023/04/10 01:39:05;;;;;;;33.00;22.57;;;1.20;99.90;;;;;;5093667;28;20228;-74
2023/04/10 01:41:33;;;;;;;33.10;22.50;;;1.20;99.90;;;;;;5096876;28;20238;-74
2023/04/10 01:44:03;;;;;;;34.43;22.90;;;1.20;99.90;;;;;;5096654;28;20200;-74
2023/04/10 01:46:30;;;;;;;33.03;22.70;;;1.20;99.90;;;;;;5096339;28;20235;-75
2023/04/10 01:49:00;;;;;;;33.43;22.23;;;1.20;99.90;;;;;;5096962;28;20235;-74
2023/04/10 01:51:27;;;;;;;32.93;21.47;;;1.20;99.90;;;;;;5096582;28;20598;-75
2023/04/10 01:53:54;;;;;;;33.10;22.10;;;1.10;99.90;;;;;;5096472;28;20197;-73
2023/04/10 01:56:21;;;;;;;33.47;21.50;;;1.10;99.90;;;;;;5096413;28;20204;-72
2023/04/10 01:58:48;;;;;;;32.73;20.90;;;1.00;99.90;;;;;;5096383;28;20196;-74
2023/04/10 02:01:20;;;;;;;32.77;21.40;;;1.00;99.90;;;;;;5096684;28;20724;-74
2023/04/10 02:03:47;;;;;;;33.33;21.37;;;0.90;99.90;;;;;;5096520;28;20196;-73
2023/04/10 02:06:18;;;;;;;32.43;21.77;;;0.80;99.90;;;;;;5095897;28;20699;-73
2023/04/10 02:08:52;;;;;;;34.00;21.40;;;0.80;99.90;;;;;;5096181;28;20231;-73
2023/04/10 02:11:27;;;;;;;30.40;21.70;;;0.80;99.90;;;;;;5096098;28;20634;-73
2023/04/10 02:13:55;;;;;;;34.73;23.13;;;0.80;99.90;;;;;;5096073;28;20716;-73
2023/04/10 02:16:23;;;;;;;33.50;20.97;;;0.80;99.90;;;;;;5096107;28;20275;-73
2023/04/10 02:18:51;;;;;;;32.93;22.03;;;0.70;99.90;;;;;;5095888;28;20706;-73
2023/04/10 02:21:18;;;;;;;37.97;22.27;;;0.80;99.90;;;;;;5095864;28;20239;-73
2023/04/10 02:23:45;;;;;;;34.77;22.40;;;0.80;99.90;;;;;;5095832;28;20261;-73
2023/04/10 02:26:11;;;;;;;33.77;22.27;;;0.60;99.90;;;;;;5095677;28;20725;-73
2023/04/10 02:28:39;;;;;;;35.63;22.83;;;0.70;99.90;;;;;;5095735;28;20615;-73
2023/04/10 02:31:06;;;;;;;35.80;22.97;;;0.60;99.90;;;;;;5095773;28;20491;-74
2023/04/10 02:33:34;;;;;;;36.17;22.80;;;0.60;99.90;;;;;;5095837;28;20287;-73
2023/04/10 02:36:00;;;;;;;32.40;21.37;;;0.60;99.90;;;;;;5095704;28;20238;-73
2023/04/10 02:38:27;;;;;;;35.77;22.57;;;0.60;99.90;;;;;;5095388;28;20660;-73
2023/04/10 02:40:54;;;;;;;35.27;22.10;;;0.40;99.90;;;;;;5095778;28;20240;-74
2023/04/10 02:43:20;;;;;;;36.03;23.67;;;0.40;99.90;;;;;;5095626;28;20257;-74
2023/04/10 02:45:47;;;;;;;35.13;23.77;;;0.40;99.90;;;;;;5095572;28;20255;-74
2023/04/10 02:48:14;;;;;;;38.97;23.73;;;0.40;99.90;;;;;;5095484;28;20219;-74
2023/04/10 02:50:46;;;;;;;39.00;24.13;;;0.30;99.90;;;;;;5095046;28;20200;-74
2023/04/10 02:53:13;;;;;;;34.97;23.53;;;0.30;99.90;;;;;;5095319;28;20200;-74
2023/04/10 02:55:40;;;;;;;39.73;24.90;;;0.30;99.90;;;;;;5095363;28;20263;-74
2023/04/10 02:58:07;;;;;;;36.80;23.70;;;0.40;99.90;;;;;;5095313;28;20196;-74
2023/04/10 03:00:33;;;;;;;38.30;24.17;;;0.20;99.90;;;;;;5095216;28;20195;-74
2023/04/10 03:03:00;;;;;;;36.07;24.13;;;0.20;99.90;;;;;;5095094;28;20232;-74
2023/04/10 03:05:27;;;;;;;41.30;25.93;;;0.20;99.90;;;;;;5095078;28;20201;-75
2023/04/10 03:07:55;;;;;;;42.47;26.17;;;0.00;99.90;;;;;;5094921;28;20220;-74
2023/04/10 03:10:23;;;;;;;38.57;23.87;;;0.00;99.90;;;;;;5095218;28;20623;-74
2023/04/10 03:12:49;;;;;;;43.30;25.80;;;0.10;99.90;;;;;;5095028;28;20224;-74
2023/04/10 03:15:16;;;;;;;40.07;25.47;;;0.00;99.90;;;;;;5094992;28;20235;-74
2023/04/10 03:17:43;;;;;;;41.60;24.70;;;0.00;99.90;;;;;;5094999;28;20258;-73
2023/04/10 03:20:11;;;;;;;37.37;23.50;;;-0.10;99.90;;;;;;5094726;28;20232;-74
2023/04/10 03:22:38;;;;;;;34.73;23.00;;;-0.10;99.90;;;;;;5095142;28;20228;-73
2023/04/10 03:25:07;;;;;;;39.13;23.40;;;-0.10;99.90;;;;;;5094924;28;20250;-74
2023/04/10 03:27:33;;;;;;;38.47;25.33;;;0.20;99.90;;;;;;5094590;28;20286;-74
2023/04/10 03:30:01;;;;;;;36.53;23.97;;;0.10;99.90;;;;;;5094664;28;20197;-74
2023/04/10 03:32:29;;;;;;;35.87;23.77;;;0.00;99.90;;;;;;5094785;28;20204;-74
2023/04/10 03:34:57;;;;;;;38.53;23.93;;;0.10;99.90;;;;;;5094201;28;20239;-74
2023/04/10 03:37:24;;;;;;;35.00;23.13;;;0.10;99.90;;;;;;5094496;28;20664;-74
2023/04/10 03:39:50;;;;;;;39.17;24.27;;;0.10;99.90;;;;;;5094526;28;20200;-74
2023/04/10 03:42:18;;;;;;;38.90;23.73;;;0.10;99.90;;;;;;5094387;28;20281;-74
2023/04/10 03:44:45;;;;;;;39.63;24.50;;;0.10;99.90;;;;;;5094528;28;20224;-74
2023/04/10 03:47:12;;;;;;;37.00;22.20;;;0.00;99.90;;;;;;5094088;28;20242;-73
2023/04/10 03:49:39;;;;;;;37.53;23.33;;;0.00;99.90;;;;;;5094132;28;20571;-73
2023/04/10 03:52:05;;;;;;;37.57;23.30;;;-0.10;99.90;;;;;;5094590;28;20231;-74
2023/04/10 03:54:32;;;;;;;34.07;21.97;;;-0.20;99.90;;;;;;5094006;28;20254;-74
2023/04/10 03:56:58;;;;;;;35.77;23.63;;;-0.30;99.90;;;;;;5094184;28;20600;-74
2023/04/10 03:59:26;;;;;;;39.07;24.93;;;-0.20;99.90;;;;;;5094003;28;20242;-74
2023/04/10 04:01:53;;;;;;;39.33;23.80;;;-0.20;99.90;;;;;;5093164;28;20675;-73
2023/04/10 04:04:19;;;;;;;39.77;24.13;;;-0.30;99.90;;;;;;5094203;28;20227;-74
2023/04/10 04:06:47;;;;;;;42.77;25.10;;;-0.30;99.90;;;;;;5094107;28;20259;-74
2023/04/10 04:09:14;;;;;;;41.57;24.93;;;-0.30;99.90;;;;;;5093809;28;20663;-73
2023/04/10 04:11:41;;;;;;;40.80;24.37;;;-0.30;99.90;;;;;;5093890;28;20285;-74
2023/04/10 04:14:08;;;;;;;41.47;25.20;;;-0.40;99.90;;;;;;5093817;28;20200;-74
2023/04/10 04:16:36;;;;;;;40.10;24.07;;;-0.30;99.90;;;;;;5093603;28;20242;-73
2023/04/10 04:19:02;;;;;;;43.33;24.63;;;-0.30;99.90;;;;;;5094154;28;20618;-74
2023/04/10 04:21:30;;;;;;;47.30;26.40;;;-0.30;99.90;;;;;;5094269;28;20604;-73
2023/04/10 04:23:56;;;;;;;42.80;24.63;;;-0.30;99.90;;;;;;5094091;28;20228;-73
2023/04/10 04:26:23;;;;;;;44.57;26.33;;;-0.30;99.90;;;;;;5093506;28;20568;-73
2023/04/10 04:28:50;;;;;;;48.70;27.63;;;-0.30;99.90;;;;;;5093272;28;20621;-74
2023/04/10 04:31:17;;;;;;;43.33;26.30;;;-0.20;99.90;;;;;;5093608;28;20200;-73
2023/04/10 04:33:45;;;;;;;45.50;25.60;;;-0.20;99.90;;;;;;5093339;28;20242;-73
2023/04/10 04:36:11;;;;;;;42.17;26.23;;;-0.20;99.90;;;;;;5093101;28;20192;-74
2023/04/10 04:38:38;;;;;;;42.23;24.93;;;-0.20;99.90;;;;;;5093166;28;20683;-72
2023/04/10 04:41:05;;;;;;;46.40;26.37;;;-0.20;99.90;;;;;;5093522;28;20223;-73
2023/04/10 04:43:31;;;;;;;40.33;24.47;;;-0.20;99.90;;;;;;5093387;28;20232;-72
2023/04/10 04:45:58;;;;;;;47.13;27.17;;;-0.20;99.90;;;;;;5093391;28;20227;-74
2023/04/10 04:48:25;;;;;;;47.50;26.20;;;-0.20;99.90;;;;;;5093037;28;20232;-74
2023/04/10 04:50:53;;;;;;;46.13;25.67;;;-0.20;99.90;;;;;;5093300;28;20232;-74
2023/04/10 04:53:19;;;;;;;41.60;26.20;;;-0.20;99.90;;;;;;5093262;28;20227;-74
2023/04/10 04:55:46;;;;;;;44.80;26.10;;;-0.10;99.90;;;;;;5093283;28;20204;-73
2023/04/10 04:58:13;;;;;;;44.37;24.93;;;-0.10;99.90;;;;;;5092987;28;20250;-74
2023/04/10 05:00:39;;;;;;;44.40;27.10;;;-0.10;99.90;;;;;;5093248;28;20234;-73
2023/04/10 05:03:06;;;;;;;47.87;26.73;;;0.00;99.90;;;;;;5093174;28;20220;-73
2023/04/10 05:05:32;;;;;;;40.13;25.83;;;0.00;99.90;;;;;;5093502;28;20197;-74
2023/04/10 05:08:00;;;;;;;47.10;27.27;;;0.10;99.90;;;;;;5093328;28;20259;-74
2023/04/10 05:10:27;;;;;;;44.30;26.50;;;0.30;99.90;;;;;;5092996;28;20231;-74
2023/04/10 05:12:53;;;;;;;46.43;26.20;;;0.40;99.90;;;;;;5093181;28;20235;-73
2023/04/10 05:15:20;;;;;;;42.47;25.43;;;0.40;99.90;;;;;;5092885;28;20234;-74
2023/04/10 05:17:49;;;;;;;43.87;25.87;;;0.50;99.90;;;;;;5092813;28;20707;-73
2023/04/10 05:20:16;;;;;;;42.47;26.60;;;0.60;99.90;;;;;;5092682;28;20197;-74
2023/04/10 05:22:43;;;;;;;45.83;27.57;;;0.70;99.90;;;;;;5092759;28;20227;-73
2023/04/10 05:25:11;;;;;;;46.13;27.60;;;0.80;99.90;;;;;;5092590;28;20231;-74
2023/04/10 05:27:37;;;;;;;44.07;28.43;;;0.90;99.90;;;;;;5092778;28;20251;-74
2023/04/10 05:30:04;;;;;;;44.60;25.60;;;1.00;99.90;;;;;;5092643;28;20227;-73
2023/04/10 05:32:31;;;;;;;42.70;26.97;;;1.10;99.90;;;;;;5092591;28;20239;-73
2023/04/10 05:34:58;;;;;;;41.67;26.67;;;1.10;99.90;;;;;;5092411;28;20319;-74
2023/04/10 05:37:24;;;;;;;40.47;24.93;;;1.20;99.90;;;;;;5092546;28;20231;-73
2023/04/10 05:39:51;;;;;;;37.87;25.40;;;1.30;99.90;;;;;;5092354;28;20232;-73
2023/04/10 05:42:19;;;;;;;41.83;25.97;;;1.40;99.90;;;;;;5092503;28;20580;-74
2023/04/10 05:44:45;;;;;;;42.03;25.90;;;1.40;99.90;;;;;;5092619;28;20200;-74
2023/04/10 05:47:12;;;;;;;40.43;25.43;;;1.50;99.90;;;;;;5092529;28;20658;-74
2023/04/10 05:49:39;;;;;;;38.30;24.07;;;1.60;99.90;;;;;;5092464;28;20239;-73
2023/04/10 05:52:05;;;;;;;39.37;24.93;;;1.70;99.90;;;;;;5092375;28;20231;-73
2023/04/10 05:54:32;;;;;;;38.33;24.13;;;1.80;99.90;;;;;;5092296;28;20214;-73
2023/04/10 05:56:58;;;;;;;39.73;24.47;;;1.90;99.90;;;;;;5092363;28;20201;-73
2023/04/10 05:59:26;;;;;;;35.60;23.47;;;2.00;99.90;;;;;;5092485;28;20228;-74
2023/04/10 06:01:53;;;;;;;35.07;23.90;;;2.20;99.90;;;;;;5092366;28;20224;-74
2023/04/10 06:04:20;;;;;;;35.27;23.97;;;2.20;99.90;;;;;;5092192;28;20228;-73
2023/04/10 06:06:47;;;;;;;35.00;23.87;;;2.40;99.90;;;;;;5092244;28;20216;-73
2023/04/10 06:09:14;;;;;;;34.33;22.73;;;2.50;99.90;;;;;;5092387;28;20236;-72
2023/04/10 06:11:40;;;;;;;36.60;23.67;;;2.60;99.90;;;;;;5092557;28;20200;-71
2023/04/10 06:14:07;;;;;;;34.70;22.63;;;2.70;99.90;;;;;;5092306;28;20226;-75
2023/04/10 06:16:35;;;;;;;34.97;23.37;;;2.80;99.90;;;;;;5092351;28;20240;-74
2023/04/10 06:19:02;;;;;;;32.10;23.00;;;2.90;99.90;;;;;;5092138;28;20200;-75
2023/04/10 06:21:28;;;;;;;31.23;22.30;;;3.00;99.90;;;;;;5092011;28;20225;-74
2023/04/10 06:23:55;;;;;;;30.17;21.50;;;3.00;99.90;;;;;;5092305;28;20236;-75
2023/04/10 06:26:21;;;;;;;29.20;20.47;;;3.20;99.90;;;;;;5095163;28;20234;-73
2023/04/10 06:28:48;;;;;;;30.87;21.90;;;3.20;99.90;;;;;;5095883;28;20262;-73
2023/04/10 06:31:15;;;;;;;31.30;20.97;;;3.40;99.90;;;;;;5095738;28;20195;-73
2023/04/10 06:33:43;;;;;;;28.00;20.03;;;3.50;99.90;;;;;;5095456;28;20230;-73
2023/04/10 06:36:09;;;;;;;30.50;20.60;;;3.70;99.90;;;;;;5095636;28;20230;-73
2023/04/10 06:38:36;;;;;;;29.27;20.97;;;3.80;99.90;;;;;;5095800;28;20197;-75
2023/04/10 06:41:04;;;;;;;28.40;20.27;;;3.90;99.90;;;;;;5095113;28;20198;-74
2023/04/10 06:43:32;;;;;;;27.93;19.20;;;4.10;99.90;;;;;;5095619;28;20249;-75
2023/04/10 06:45:59;;;;;;;26.27;19.37;;;4.20;99.90;;;;;;5095419;28;20200;-74
2023/04/10 06:48:25;;;;;;;26.90;19.67;;;4.30;99.90;;;;;;5094443;28;20263;-74
2023/04/10 06:50:53;;;;;;;28.17;19.40;;;4.50;99.90;;;;;;5095517;28;20228;-74
2023/04/10 06:53:20;;;;;;;25.90;19.03;;;4.60;99.90;;;;;;5095556;28;20228;-74
2023/04/10 06:55:46;;;;;;;26.53;19.30;;;4.70;99.90;;;;;;5095457;28;20235;-74
2023/04/10 06:58:13;;;;;;;24.63;18.60;;;4.80;99.90;;;;;;5095203;28;20227;-74
2023/04/10 07:00:40;;;;;;;23.40;18.07;;;5.00;99.90;;;;;;5095157;28;20235;-75
2023/04/10 07:03:06;;;;;;;23.87;17.30;;;5.20;99.90;;;;;;5094982;28;20230;-74
2023/04/10 07:05:33;;;;;;;21.83;17.47;;;5.30;99.90;;;;;;5095268;28;20196;-75
2023/04/10 07:08:01;;;;;;;23.33;17.30;;;5.50;99.90;;;;;;5095131;28;20305;-74
2023/04/10 07:10:27;;;;;;;21.73;16.30;;;5.70;99.90;;;;;;5095283;28;20250;-75
2023/04/10 07:12:56;;;;;;;21.60;16.50;;;5.90;99.90;;;;;;5095074;28;20224;-74
2023/04/10 07:15:22;;;;;;;21.67;16.60;;;6.00;99.90;;;;;;5094655;28;20547;-75
2023/04/10 07:17:49;;;;;;;19.13;14.97;;;6.20;99.90;;;;;;5094829;28;20615;-75
2023/04/10 07:20:15;;;;;;;19.13;15.17;;;6.40;99.90;;;;;;5094943;28;20227;-76
2023/04/10 07:22:42;;;;;;;19.13;14.77;;;6.70;99.90;;;;;;5095015;28;20228;-77
2023/04/10 07:25:10;;;;;;;18.80;14.60;;;6.90;99.90;;;;;;5094763;28;20322;-73
2023/04/10 07:27:37;;;;;;;17.57;13.93;;;7.10;99.90;;;;;;5094657;28;20273;-75
2023/04/10 07:30:05;;;;;;;17.87;14.03;;;7.30;99.90;;;;;;5094570;28;20200;-74
2023/04/10 07:32:33;;;;;;;18.50;14.10;;;7.50;99.90;;;;;;5094848;28;20294;-75
2023/04/10 07:35:00;;;;;;;17.53;13.87;;;7.70;99.90;;;;;;5091660;28;20268;-75
2023/04/10 07:37:26;;;;;;;17.53;14.87;;;7.90;99.90;;;;;;5092573;28;20232;-78
2023/04/10 07:39:53;;;;;;;17.23;14.33;;;8.20;99.90;;;;;;5093559;28;20193;-73
2023/04/10 07:42:21;;;;;;;16.23;13.40;;;8.40;99.90;;;;;;5094343;28;20227;-72
2023/04/10 07:44:48;;;;;;;17.57;13.93;;;8.60;99.90;;;;;;5094238;28;20224;-73
2023/04/10 07:47:15;;;;;;;17.23;14.23;;;8.90;99.90;;;;;;5094287;28;20274;-73
2023/04/10 07:49:41;;;;;;;15.77;13.67;;;9.20;99.90;;;;;;5094639;28;20206;-76
2023/04/10 07:52:08;;;;;;;16.13;13.40;;;9.40;99.90;;;;;;5094020;28;20266;-75
2023/04/10 07:54:35;;;;;;;16.60;13.57;;;9.60;99.90;;;;;;5093819;28;20251;-75
2023/04/10 07:57:01;;;;;;;14.50;12.47;;;9.70;99.90;;;;;;5094136;28;20250;-75
2023/04/10 07:59:29;;;;;;;14.37;12.10;;;10.00;99.90;;;;;;5094100;28;20659;-75
2023/04/10 08:01:56;;;;;;;13.93;12.43;;;9.90;99.90;;;;;;5094327;28;20196;-75
2023/04/10 08:04:22;;;;;;;14.70;11.63;;;9.90;99.90;;;;;;5094111;28;20242;-76
2023/04/10 08:06:49;;;;;;;15.20;12.37;;;10.00;99.90;;;;;;5094184;28;20841;-75
2023/04/10 08:09:16;;;;;;;14.07;12.40;;;10.10;99.90;;;;;;5093879;28;20255;-77
2023/04/10 08:11:42;;;;;;;15.50;12.37;;;10.10;99.90;;;;;;5094437;28;20228;-79
2023/04/10 08:14:09;;;;;;;14.37;12.10;;;10.10;99.90;;;;;;5093913;28;20239;-75
2023/04/10 08:16:38;;;;;;;14.37;12.20;;;10.30;99.90;;;;;;5090245;28;20661;-75
2023/04/10 08:19:04;;;;;;;15.53;12.30;;;10.40;99.90;;;;;;5081699;28;20200;-74
2023/04/10 08:21:31;;;;;;;12.57;11.17;;;10.30;99.90;;;;;;5093313;28;20239;-75
2023/04/10 08:23:59;;;;;;;13.70;11.77;;;10.50;99.90;;;;;;5093239;28;20663;-75
2023/04/10 08:26:27;;;;;;;14.10;12.23;;;10.70;99.90;;;;;;5093423;28;20615;-75
2023/04/10 08:28:56;;;;;;;14.07;11.97;;;10.90;99.90;;;;;;5093306;28;20307;-74
2023/04/10 08:31:24;;;;;;;14.00;11.93;;;11.00;99.90;;;;;;5092781;28;20682;-74
2023/04/10 08:33:52;;;;;;;13.80;11.90;;;11.20;99.90;;;;;;5092279;28;20267;-75
2023/04/10 08:36:19;;;;;;;13.90;11.60;;;11.40;99.90;;;;;;5093326;28;20196;-74
2023/04/10 08:38:46;;;;;;;12.97;10.93;;;11.70;99.90;;;;;;5092818;28;20192;-74
2023/04/10 08:41:14;;;;;;;12.27;10.97;;;11.80;99.90;;;;;;5093297;28;20239;-75
2023/04/10 08:43:42;;;;;;;13.17;11.23;;;11.80;99.90;;;;;;5093137;28;20196;-74
2023/04/10 08:46:09;;;;;;;12.43;10.80;;;12.00;99.90;;;;;;5093132;28;20292;-75
2023/04/10 08:48:39;;;;;;;11.47;10.27;;;11.60;99.90;;;;;;5092709;28;20610;-75
2023/04/10 08:51:13;;;;;;;12.23;9.80;;;11.60;99.90;;;;;;5092863;28;20192;-75
2023/04/10 08:53:43;;;;;;;13.07;10.53;;;11.90;99.90;;;;;;5092307;28;20204;-74
2023/04/10 08:56:13;;;;;;;11.30;9.70;;;12.20;99.90;;;;;;5092882;28;20193;-75
2023/04/10 08:58:39;;;;;;;12.23;10.17;;;12.20;99.90;;;;;;5092975;28;20283;-74
2023/04/10 09:01:07;;;;;;;11.87;9.93;;;12.50;99.90;;;;;;5092787;28;20192;-75
2023/04/10 09:03:34;;;;;;;10.57;9.47;;;12.60;99.90;;;;;;5092884;28;20228;-75
2023/04/10 09:06:02;;;;;;;10.97;9.87;;;12.90;99.90;;;;;;5092548;28;20287;-74
2023/04/10 09:08:30;;;;;;;11.37;10.17;;;12.90;99.90;;;;;;5092809;28;20223;-76
2023/04/10 09:10:57;;;;;;;11.60;10.13;;;12.80;99.90;;;;;;5092369;28;20235;-79
2023/04/10 09:13:37;;;;;;;10.30;9.23;;;12.90;99.90;;;;;;5092575;28;20276;-74
2023/04/10 09:16:04;;;;;;;9.47;8.50;;;12.80;99.90;;;;;;5091917;28;20196;-74
2023/04/10 09:18:42;;;;;;;10.43;9.13;;;13.10;99.90;;;;;;5092388;28;20192;-75
2023/04/10 09:21:09;;;;;;;10.60;9.50;;;13.20;99.90;;;;;;5092595;28;20191;-75
2023/04/10 09:23:37;;;;;;;12.17;10.40;;;13.20;99.30;;;;;;5092359;28;20192;-75
2023/04/10 09:26:21;;;;;;;13.23;11.13;;;12.90;99.60;;;;;;5092037;28;20642;-76
2023/04/10 09:28:57;;;;;;;12.53;10.43;;;13.20;99.90;;;;;;5091455;28;20224;-78
2023/04/10 09:31:29;;;;;;;11.03;9.83;;;13.40;99.90;;;;;;5070165;28;20208;-76
2023/04/10 09:34:14;;;;;;;11.83;10.30;;;13.50;98.80;;;;;;5073669;28;20226;-74
2023/04/10 09:36:41;;;;;;;11.40;10.13;;;13.90;98.70;;;;;;5069761;28;20197;-74
2023/04/10 09:39:10;;;;;;;10.87;9.63;;;13.80;97.10;;;;;;5070481;28;20205;-75
2023/04/10 09:41:48;;;;;;;9.47;8.47;;;13.60;96.40;;;;;;5089682;28;20277;-75
2023/04/10 09:44:17;;;;;;;9.10;8.10;;;14.00;96.30;;;;;;5089698;28;20196;-74
2023/04/10 09:46:44;;;;;;;10.17;9.17;;;13.90;94.60;;;;;;5089030;28;20795;-75
2023/04/10 09:49:11;;;;;;;8.93;7.70;;;14.20;94.30;;;;;;5089711;28;20255;-75
2023/04/10 09:51:38;;;;;;;9.38;8.15;;;14.60;92.10;;;;;;5089894;28;20228;-74
2023/04/10 09:54:05;;;;;;;9.07;8.18;;;15.00;91.00;;;;;;5089638;28;20196;-75
2023/04/10 09:56:37;;;;;;;8.95;8.05;;;15.20;91.20;;;;;;5069894;28;20197;-75
2023/04/10 09:59:07;;;;;;;8.50;7.70;;;15.30;87.90;;;;;;5069839;28;20282;-74
2023/04/10 10:01:35;;;;;;;8.63;7.80;;;15.20;87.20;;;;;;5072706;28;20209;-74
2023/04/10 10:04:03;;;;;;;8.77;7.88;;;15.20;83.40;;;;;;5073407;28;20201;-74
2023/04/10 10:06:31;;;;;;;8.63;7.72;;;15.50;83.80;;;;;;5092354;28;20219;-74
2023/04/10 10:09:03;;;;;;;6.53;5.90;;;16.00;81.40;;;;;;5093726;28;20572;-75
2023/04/10 10:11:32;;;;;;;8.50;7.00;;;15.50;71.50;;;;;;5093225;28;20661;-74
2023/04/10 10:14:02;;;;;;;7.65;6.95;;;15.80;71.00;;;;;;5090876;28;20287;-75
2023/04/10 10:16:34;;;;;;;8.43;7.63;;;16.10;72.40;;;;;;5072763;28;20220;-75
2023/04/10 10:19:04;;;;;;;7.60;6.85;;;16.80;71.90;;;;;;5073202;28;20231;-74
2023/04/10 10:21:33;;;;;;;7.55;6.85;;;16.20;67.10;;;;;;5073415;28;20193;-75
2023/04/10 10:24:02;;;;;;;7.85;7.15;;;16.50;67.30;;;;;;5073013;28;20321;-74
2023/04/10 10:26:33;;;;;;;8.18;7.40;;;16.40;64.50;;;;;;5073116;28;20237;-77
2023/04/10 10:29:04;;;;;;;7.88;7.18;;;16.20;65.40;;;;;;5072541;28;20640;-75
2023/04/10 10:31:34;;;;;;;7.68;6.88;;;15.60;62.10;;;;;;5073072;28;20203;-75
2023/04/10 10:34:03;;;;;;;7.32;6.72;;;15.90;63.40;;;;;;5072777;28;20264;-74
2023/04/10 10:36:30;;;;;;;7.97;7.18;;;16.20;60.60;;;;;;5074870;28;20196;-74
2023/04/10 10:39:10;;;;;;;6.78;6.18;;;16.00;59.40;;;;;;5084488;28;20196;-73
2023/04/10 10:41:44;;;;;;;7.20;6.53;;;16.40;58.50;;;;;;5095213;28;20219;-73
2023/04/10 10:44:17;;;;;;;7.60;6.90;;;16.80;57.70;;;;;;5094856;28;20232;-73
2023/04/10 10:46:48;;;;;;;8.27;7.45;;;17.00;57.20;;;;;;5094908;28;20548;-72
2023/04/10 10:49:15;;;;;;;6.35;5.82;;;16.70;59.40;;;;;;5094998;28;20259;-72
2023/04/10 10:51:46;;;;;;;7.20;6.60;;;17.40;54.00;;;;;;5094705;28;20612;-72
2023/04/10 10:54:29;;;;;;;6.60;6.00;;;17.50;52.50;;;;;;5093943;28;20189;-73
2023/04/10 10:56:56;;;;;;;6.88;6.28;;;18.20;50.80;;;;;;5094212;28;20200;-73
2023/04/10 10:59:58;;;;;;;6.45;5.85;;;18.70;49.40;;;;;;5094600;28;20200;-73
2023/04/10 11:02:26;;;;;;;6.80;6.20;;;18.00;47.70;;;;;;5087778;28;20235;-73
2023/04/10 11:04:52;;;;;;;6.90;6.30;;;19.00;47.60;;;;;;5094595;28;20224;-75
2023/04/10 11:07:19;;;;;;;7.82;7.13;;;18.60;45.10;;;;;;5095092;28;20224;-76
2023/04/10 11:09:50;;;;;;;6.35;5.80;;;19.50;45.50;;;;;;5094270;28;20711;-75
2023/04/10 11:12:18;;;;;;;6.75;6.13;;;20.30;44.10;;;;;;5094610;28;20196;-73
2023/04/10 11:14:55;;;;;;;6.50;6.00;;;20.00;41.20;;;;;;5094166;28;20220;-73
2023/04/10 11:17:49;;;;;;;6.85;6.25;;;19.70;40.80;;;;;;5094602;28;20230;-73
2023/04/10 11:20:16;;;;;;;7.10;6.50;;;20.30;40.40;;;;;;5094425;28;20862;-72
2023/04/10 11:23:09;;;;;;;6.75;6.15;;;21.80;40.30;;;;;;5094439;28;20674;-74
2023/04/10 11:25:50;;;;;;;6.18;5.68;;;21.90;35.30;;;;;;5094260;28;20283;-74
2023/04/10 11:28:39;;;;;;;6.75;6.15;;;22.20;33.70;;;;;;5094333;28;20200;-74
2023/04/10 11:31:20;;;;;;;6.35;5.85;;;22.40;32.60;;;;;;5094346;28;20200;-74
2023/04/10 11:33:52;;;;;;;6.75;6.15;;;23.00;31.70;;;;;;5093681;28;20220;-75
2023/04/10 11:36:19;;;;;;;6.47;5.97;;;23.00;30.00;;;;;;5094092;28;20201;-75
2023/04/10 11:38:56;;;;;;;7.53;5.80;;;21.50;30.00;;;;;;5094247;28;20196;-75
2023/04/10 11:41:27;;;;;;;6.43;5.80;;;20.70;30.00;;;;;;5094357;28;20238;-74
2023/04/10 11:43:54;;;;;;;6.50;5.90;;;19.60;30.80;;;;;;5093955;28;20194;-73
2023/04/10 11:46:21;;;;;;;6.60;6.00;;;19.80;32.60;;;;;;5093836;28;20204;-74
2023/04/10 11:48:52;;;;;;;6.10;5.60;;;20.80;30.20;;;;;;5094081;28;20622;-74
2023/04/10 11:51:19;;;;;;;6.03;5.53;;;21.90;30.40;;;;;;5094314;28;20261;-73
2023/04/10 11:53:46;;;;;;;5.38;4.97;;;23.20;29.00;;;;;;5093809;28;20219;-73
2023/04/10 11:56:17;;;;;;;6.25;5.72;;;23.70;28.40;;;;;;5094008;28;20227;-74
2023/04/10 11:58:44;;;;;;;6.40;5.90;;;24.10;28.00;;;;;;5093819;28;20192;-74
2023/04/10 12:01:13;;;;;;;6.53;5.93;;;24.90;27.40;;;;;;5093367;28;20192;-74
2023/04/10 12:03:40;;;;;;;6.35;5.85;;;25.40;27.30;;;;;;5093705;28;20193;-75
2023/04/10 12:06:11;;;;;;;6.22;5.72;;;24.60;25.60;;;;;;5093770;28;20223;-74
2023/04/10 12:08:40;;;;;;;6.10;5.60;;;22.90;26.10;;;;;;5093368;28;20193;-75
2023/04/10 12:11:08;;;;;;;6.13;5.63;;;21.90;26.20;;;;;;5093279;28;20196;-75
2023/04/10 12:13:35;;;;;;;6.53;6.03;;;22.80;25.80;;;;;;5092502;28;20208;-74
2023/04/10 12:16:06;;;;;;;6.85;6.25;;;21.80;26.20;;;;;;5093105;28;20652;-75
2023/04/10 12:18:33;;;;;;;6.25;5.72;;;19.90;27.80;;;;;;5093141;28;20232;-75
2023/04/10 12:21:00;;;;;;;5.95;5.45;;;22.20;28.00;;;;;;5093348;28;20224;-74
2023/04/10 12:23:29;;;;;;;6.28;5.75;;;22.70;26.00;;;;;;5092736;28;20310;-74
2023/04/10 12:26:07;;;;;;;7.00;6.40;;;23.20;25.70;;;;;;5093140;28;20204;-74
2023/04/10 12:28:34;;;;;;;7.28;6.68;;;22.30;27.00;;;;;;5090715;28;20443;-77
2023/04/10 12:31:02;;;;;;;7.50;6.90;;;23.50;27.20;;;;;;5093257;28;20678;-74
2023/04/10 12:33:28;;;;;;;8.20;7.50;;;23.40;26.60;;;;;;5093095;28;20640;-75
2023/04/10 12:35:55;;;;;;;6.80;6.20;;;23.00;26.90;;;;;;5092741;28;20243;-75
2023/04/10 12:38:40;;;;;;;7.13;6.53;;;24.40;25.80;;;;;;5093075;28;20232;-75
2023/04/10 12:41:08;;;;;;;6.82;6.22;;;24.30;25.30;;;;;;5093480;28;20197;-75
2023/04/10 12:43:36;;;;;;;6.82;6.18;;;22.60;25.20;;;;;;5093138;28;20633;-75
2023/04/10 12:46:04;;;;;;;6.40;5.80;;;23.20;26.00;;;;;;5092938;28;20648;-75